Time,TemperatureF,DewpointF,PressureIn,WindDirection,WindDirectionDegrees,WindSpeedMPH,WindSpeedGustMPH,Humidity,HourlyPrecipIn,Conditions,Clouds,dailyrainin,SoftwareType,DateUTC
2013-06-23 00:01:00,70.3,68.8,29.86,WSW,247,0.0,-999.0,95,-99.99,,,0.00,Acu-Link.com,2013-06-23 04:01:00,
2013-06-23 00:16:00,70.7,68.9,29.85,NNW,337,0.0,-999.0,94,-99.99,,,0.00,Acu-Link.com,2013-06-23 04:16:00,
2013-06-23 00:32:00,71.1,69.0,29.86,ESE,112,1.1,-999.0,93,-99.99,,,0.00,Acu-Link.com,2013-06-23 04:32:00,
2013-06-23 00:47:00,70.2,68.7,29.86,WSW,247,0.0,-999.0,95,-99.99,,,0.00,Acu-Link.com,2013-06-23 04:47:00,
2013-06-23 01:02:00,69.6,68.4,29.86,SW,225,0.0,-999.0,96,-99.99,,,0.00,Acu-Link.com,2013-06-23 05:02:00,
2013-06-23 01:17:00,69.3,68.4,29.85,WNW,292,0.0,-999.0,97,-99.99,,,0.00,Acu-Link.com,2013-06-23 05:17:00,
2013-06-23 01:32:00,68.9,68.3,29.85,South,180,0.0,-999.0,98,-99.99,,,0.00,Acu-Link.com,2013-06-23 05:32:00,
2013-06-23 01:47:00,68.7,68.1,29.84,WSW,247,1.7,-999.0,98,-99.99,,,0.00,Acu-Link.com,2013-06-23 05:47:00,
2013-06-23 02:02:00,68.7,68.1,29.84,West,270,0.0,-999.0,98,-99.99,,,0.00,Acu-Link.com,2013-06-23 06:02:00,
2013-06-23 02:17:00,68.0,67.4,29.84,ESE,112,1.1,-999.0,98,-99.99,,,0.00,Acu-Link.com,2013-06-23 06:17:00,
2013-06-23 02:32:00,67.3,66.7,29.83,SW,225,0.0,-999.0,98,-99.99,,,0.00,Acu-Link.com,2013-06-23 06:32:00,
2013-06-23 02:48:00,67.3,67.0,29.82,NNW,337,0.0,-999.0,99,-99.99,,,0.00,Acu-Link.com,2013-06-23 06:48:00,
2013-06-23 03:03:00,66.7,66.4,29.83,SSE,157,0.0,-999.0,99,-99.99,,,0.00,Acu-Link.com,2013-06-23 07:03:00,
2013-06-23 03:18:00,66.2,65.9,29.82,East,90,0.0,-999.0,99,-99.99,,,0.00,Acu-Link.com,2013-06-23 07:18:00,
2013-06-23 03:33:00,65.5,65.2,29.83,SSE,157,0.0,-999.0,99,-99.99,,,0.00,Acu-Link.com,2013-06-23 07:33:00,
2013-06-23 03:48:00,65.5,65.2,29.83,SE,135,0.0,-999.0,99,-99.99,,,0.00,Acu-Link.com,2013-06-23 07:48:00,
2013-06-23 04:04:00,65.1,64.8,29.83,NNW,337,0.0,-999.0,99,-99.99,,,0.00,Acu-Link.com,2013-06-23 08:04:00,
2013-06-23 04:19:00,65.1,64.8,29.83,SSE,157,0.0,-999.0,99,-99.99,,,0.00,Acu-Link.com,2013-06-23 08:19:00,
2013-06-23 04:34:00,64.8,64.5,29.82,WSW,247,0.0,-999.0,99,-99.99,,,0.00,Acu-Link.com,2013-06-23 08:34:00,
2013-06-23 04:49:00,64.9,64.6,29.82,West,270,0.0,-999.0,99,-99.99,,,0.00,Acu-Link.com,2013-06-23 08:49:00,
2013-06-23 05:04:00,65.1,64.8,29.83,SSE,157,0.0,-999.0,99,-99.99,,,0.00,Acu-Link.com,2013-06-23 09:04:00,
2013-06-23 05:19:00,64.6,64.3,29.85,SW,225,0.0,-999.0,99,-99.99,,,0.00,Acu-Link.com,2013-06-23 09:19:00,
2013-06-23 05:34:00,64.4,64.1,29.86,West,270,1.7,-999.0,99,-99.99,,,0.00,Acu-Link.com,2013-06-23 09:34:00,
2013-06-23 05:49:00,64.0,63.7,29.87,ENE,67,1.7,-999.0,99,-99.99,,,0.00,Acu-Link.com,2013-06-23 09:49:00,
2013-06-23 06:04:00,63.9,63.6,29.87,NNW,337,0.0,-999.0,99,-99.99,,,0.00,Acu-Link.com,2013-06-23 10:04:00,
2013-06-23 06:19:00,63.9,63.6,29.87,North,0,0.0,-999.0,99,-99.99,,,0.00,Acu-Link.com,2013-06-23 10:19:00,
2013-06-23 06:35:00,63.5,63.2,29.89,East,90,0.0,-999.0,99,-99.99,,,0.00,Acu-Link.com,2013-06-23 10:35:00,
2013-06-23 06:50:00,63.7,63.4,29.89,NNE,22,0.0,-999.0,99,-99.99,,,0.00,Acu-Link.com,2013-06-23 10:50:00,
2013-06-23 07:05:00,66.2,65.9,29.90,ESE,112,0.0,-999.0,99,-99.99,,,0.00,Acu-Link.com,2013-06-23 11:05:00,
2013-06-23 07:20:00,67.8,67.2,29.90,ENE,67,0.0,-999.0,98,-99.99,,,0.00,Acu-Link.com,2013-06-23 11:20:00,
2013-06-23 07:35:00,70.0,68.2,29.91,West,270,0.0,-999.0,94,-99.99,,,0.00,Acu-Link.com,2013-06-23 11:35:00,
2013-06-23 07:50:00,72.3,68.9,29.91,SSE,157,0.0,-999.0,89,-99.99,,,0.00,Acu-Link.com,2013-06-23 11:50:00,
2013-06-23 08:05:00,75.2,70.0,29.90,SSW,202,2.2,-999.0,84,-99.99,,,0.00,Acu-Link.com,2013-06-23 12:05:00,
2013-06-23 08:20:00,77.2,70.2,29.91,West,270,2.7,-999.0,79,-99.99,,,0.00,Acu-Link.com,2013-06-23 12:20:00,
2013-06-23 08:35:00,79.2,70.6,29.91,West,270,0.0,-999.0,75,-99.99,,,0.00,Acu-Link.com,2013-06-23 12:35:00,
2013-06-23 08:50:00,81.5,70.3,29.90,ESE,112,2.7,-999.0,69,-99.99,,,0.00,Acu-Link.com,2013-06-23 12:50:00,
2013-06-23 09:06:00,82.8,70.3,29.91,SW,225,2.7,-999.0,66,-99.99,,,0.00,Acu-Link.com,2013-06-23 13:06:00,
2013-06-23 09:21:00,85.8,70.8,29.91,South,180,1.7,-999.0,61,-99.99,,,0.02,Acu-Link.com,2013-06-23 13:21:00,
2013-06-23 09:36:00,85.5,71.4,29.90,SSW,202,2.7,-999.0,63,-99.99,,,0.02,Acu-Link.com,2013-06-23 13:36:00,
2013-06-23 09:51:00,86.7,70.1,29.91,East,90,1.7,-999.0,58,-99.99,,,0.02,Acu-Link.com,2013-06-23 13:51:00,
2013-06-23 10:06:00,80.4,68.4,29.90,SSW,202,2.2,-999.0,67,-99.99,,,0.02,Acu-Link.com,2013-06-23 14:06:00,
2013-06-23 10:21:00,81.1,69.5,29.90,West,270,2.2,-999.0,68,-99.99,,,0.02,Acu-Link.com,2013-06-23 14:21:00,
2013-06-23 10:36:00,82.9,69.4,29.91,NE,45,1.1,-999.0,64,-99.99,,,0.02,Acu-Link.com,2013-06-23 14:36:00,
2013-06-23 10:51:00,83.8,70.8,29.90,WNW,292,1.1,-999.0,65,-99.99,,,0.02,Acu-Link.com,2013-06-23 14:51:00,
2013-06-23 11:08:00,84.2,70.7,29.90,West,270,2.2,-999.0,64,-99.99,,,0.02,Acu-Link.com,2013-06-23 15:08:00,
2013-06-23 11:29:00,84.0,69.1,29.90,West,270,1.7,-999.0,61,-99.99,,,0.02,Acu-Link.com,2013-06-23 15:29:00,
2013-06-23 11:44:00,85.5,68.5,29.89,SW,225,3.7,-999.0,57,-99.99,,,0.02,Acu-Link.com,2013-06-23 15:44:00,
2013-06-23 11:59:00,86.9,68.8,29.89,WSW,247,3.2,-999.0,55,-99.99,,,0.02,Acu-Link.com,2013-06-23 15:59:00,
2013-06-23 12:14:00,87.6,67.8,29.88,SSE,157,2.7,-999.0,52,-99.99,,,0.02,Acu-Link.com,2013-06-23 16:14:00,
2013-06-23 12:29:00,87.6,67.2,29.88,SE,135,2.2,-999.0,51,-99.99,,,0.02,Acu-Link.com,2013-06-23 16:29:00,
2013-06-23 12:44:00,86.4,67.2,29.87,WSW,247,4.7,-999.0,53,-99.99,,,0.02,Acu-Link.com,2013-06-23 16:44:00,
2013-06-23 12:59:00,88.3,66.7,29.86,SW,225,2.7,-999.0,49,-99.99,,,0.02,Acu-Link.com,2013-06-23 16:59:00,
2013-06-23 13:17:00,88.2,67.2,29.87,ESE,112,1.7,-999.0,50,-99.99,,,0.02,Acu-Link.com,2013-06-23 17:17:00,
2013-06-23 13:35:00,88.5,65.7,29.86,SSW,202,3.7,-999.0,47,-99.99,,,0.02,Acu-Link.com,2013-06-23 17:35:00,
2013-06-23 13:51:00,89.8,67.5,29.86,NW,315,2.2,-999.0,48,-99.99,,,0.02,Acu-Link.com,2013-06-23 17:51:00,
2013-06-23 14:06:00,88.9,68.4,29.87,South,180,2.2,-999.0,51,-99.99,,,0.02,Acu-Link.com,2013-06-23 18:06:00,
2013-06-23 14:21:00,88.0,64.6,29.87,WSW,247,3.2,-999.0,46,-99.99,,,0.02,Acu-Link.com,2013-06-23 18:21:00,
2013-06-23 14:36:00,89.4,69.4,29.86,SSW,202,2.2,-999.0,52,-99.99,,,0.02,Acu-Link.com,2013-06-23 18:36:00,
2013-06-23 14:52:00,88.3,66.7,29.85,SW,225,2.2,-999.0,49,-99.99,,,0.02,Acu-Link.com,2013-06-23 18:52:00,
2013-06-23 15:08:00,88.7,67.6,29.85,East,90,1.7,-999.0,50,-99.99,,,0.02,Acu-Link.com,2013-06-23 19:08:00,
2013-06-23 15:24:00,88.7,68.2,29.84,SW,225,1.7,-999.0,51,-99.99,,,0.02,Acu-Link.com,2013-06-23 19:24:00,
2013-06-23 15:39:00,89.8,69.8,29.84,East,90,4.2,-999.0,52,-99.99,,,0.02,Acu-Link.com,2013-06-23 19:39:00,
2013-06-23 15:54:00,88.0,68.1,29.84,SW,225,2.7,-999.0,52,-99.99,,,0.02,Acu-Link.com,2013-06-23 19:54:00,
2013-06-23 16:09:00,87.1,67.9,29.83,SW,225,1.7,-999.0,53,-99.99,,,0.02,Acu-Link.com,2013-06-23 20:09:00,
2013-06-23 16:24:00,88.3,67.8,29.83,SSW,202,2.2,-999.0,51,-99.99,,,0.02,Acu-Link.com,2013-06-23 20:24:00,
2013-06-23 16:39:00,89.1,67.4,29.82,NNE,22,2.2,-999.0,49,-99.99,,,0.02,Acu-Link.com,2013-06-23 20:39:00,
2013-06-23 16:55:00,88.9,67.2,29.82,SSE,157,3.2,-999.0,49,-99.99,,,0.02,Acu-Link.com,2013-06-23 20:55:00,
2013-06-23 17:11:00,88.5,68.0,29.83,ESE,112,1.1,-999.0,51,-99.99,,,0.02,Acu-Link.com,2013-06-23 21:11:00,
2013-06-23 17:26:00,91.6,67.8,29.81,WSW,247,2.7,-999.0,46,-99.99,,,0.02,Acu-Link.com,2013-06-23 21:26:00,
2013-06-23 17:41:00,95.0,68.3,29.82,SW,225,1.1,-999.0,42,-99.99,,,0.02,Acu-Link.com,2013-06-23 21:41:00,
2013-06-23 17:56:00,94.8,68.1,29.81,West,270,3.7,-999.0,42,-99.99,,,0.02,Acu-Link.com,2013-06-23 21:56:00,
2013-06-23 18:11:00,92.8,68.3,29.81,WNW,292,1.7,-999.0,45,-99.99,,,0.02,Acu-Link.com,2013-06-23 22:11:00,
2013-06-23 18:26:00,91.8,68.7,29.81,West,270,3.2,-999.0,47,-99.99,,,0.02,Acu-Link.com,2013-06-23 22:26:00,
2013-06-23 18:42:00,89.2,68.1,29.80,SSW,202,0.0,-999.0,50,-99.99,,,0.02,Acu-Link.com,2013-06-23 22:42:00,
2013-06-23 18:57:00,90.5,65.6,29.80,SW,225,2.2,-999.0,44,-99.99,,,0.02,Acu-Link.com,2013-06-23 22:57:00,
2013-06-23 19:12:00,93.9,68.0,29.80,SSW,202,0.0,-999.0,43,-99.99,,,0.02,Acu-Link.com,2013-06-23 23:12:00,
2013-06-23 19:27:00,91.6,67.8,29.81,WSW,247,1.1,-999.0,46,-99.99,,,0.02,Acu-Link.com,2013-06-23 23:27:00,
2013-06-23 19:42:00,87.4,67.6,29.80,SSW,202,0.0,-999.0,52,-99.99,,,0.02,Acu-Link.com,2013-06-23 23:42:00,
2013-06-23 19:57:00,84.9,67.9,29.81,West,270,0.0,-999.0,57,-99.99,,,0.02,Acu-Link.com,2013-06-23 23:57:00,
2013-06-23 20:12:00,82.4,69.0,29.81,ESE,112,0.0,-999.0,64,-99.99,,,0.02,Acu-Link.com,2013-06-24 00:12:00,
2013-06-23 20:30:00,80.4,70.1,29.82,SE,135,0.0,-999.0,71,-99.99,,,0.02,Acu-Link.com,2013-06-24 00:30:00,
2013-06-23 20:46:00,79.3,69.1,29.82,ESE,112,0.0,-999.0,71,-99.99,,,0.02,Acu-Link.com,2013-06-24 00:46:00,
2013-06-23 21:01:00,78.3,67.3,29.83,SW,225,0.0,-999.0,69,-99.99,,,0.02,Acu-Link.com,2013-06-24 01:01:00,
2013-06-23 21:16:00,77.5,67.3,29.83,SSW,202,0.0,-999.0,71,-99.99,,,0.02,Acu-Link.com,2013-06-24 01:16:00,
2013-06-23 21:33:00,76.3,66.6,29.84,NW,315,0.0,-999.0,72,-99.99,,,0.02,Acu-Link.com,2013-06-24 01:33:00,
2013-06-23 21:48:00,75.9,67.4,29.84,NE,45,0.0,-999.0,75,-99.99,,,0.02,Acu-Link.com,2013-06-24 01:48:00,
2013-06-23 22:03:00,75.2,68.2,29.86,SSE,157,1.1,-999.0,79,-99.99,,,0.02,Acu-Link.com,2013-06-24 02:03:00,
2013-06-23 22:18:00,74.5,68.3,29.85,South,180,0.0,-999.0,81,-99.99,,,0.02,Acu-Link.com,2013-06-24 02:18:00,
2013-06-23 22:33:00,73.6,67.4,29.86,WSW,247,0.0,-999.0,81,-99.99,,,0.02,Acu-Link.com,2013-06-24 02:33:00,
2013-06-23 22:53:00,73.4,66.8,29.86,SSE,157,2.2,-999.0,80,-99.99,,,0.02,Acu-Link.com,2013-06-24 02:53:00,
2013-06-23 23:08:00,70.5,67.4,29.87,ENE,67,0.0,-999.0,90,-99.99,,,0.02,Acu-Link.com,2013-06-24 03:08:00,
2013-06-23 23:24:00,70.0,66.9,29.87,ESE,112,0.0,-999.0,90,-99.99,,,0.02,Acu-Link.com,2013-06-24 03:24:00,
2013-06-23 23:44:00,70.0,66.9,29.88,West,270,0.0,-999.0,90,-99.99,,,0.02,Acu-Link.com,2013-06-24 03:44:00,
2013-06-23 23:59:00,68.7,66.9,29.88,South,180,0.0,-999.0,94,-99.99,,,0.02,Acu-Link.com,2013-06-24 03:59:00,